METAR-TAF

Aéroport de Béziers-Cap d'Agde

Béziers, France

latitude: 43-19N, longitude: 003-21E, altitude: 17 m

Observation

Le bulletin a été fait il y a 25 minutes, à 09:30 UTC
Vent 9 kt de nord, variant entre nord-ouest et nord/nord-est
Température 31°C
Humidité 43%
Pression 1017 hPa
Visibilité 10 km ou plus
pas de nuages en-dessous de 1500 mètres et pas de cumulonimbus.

METAR: LFMU 190930Z AUTO 35009KT 310V030 CAVOK 31/17 Q1017 BECMG 18010KT

Heure: 11:55 (09:55 UTC)

Prévision

Le bulletin a été fait il y a 1 heure et 55 minutes, à 08:00 UTC
Prévision valable du 19 à 09 UTC au 20 à 09 UTC
Vent 6 kt de nord-ouest
Visibilité 10 km ou plus
pas de nuages en-dessous de 1500 mètres et pas de cumulonimbus.
Evoluant progressivement
du 19 à 09 UTC au 19 à 11 UTC
Vent 10 kt de sud
Evoluant progressivement
du 19 à 18 UTC au 19 à 20 UTC
Vent 3 kt de direction variable

TAF: LFMU 190800Z 1909/2009 32006KT CAVOK BECMG 1909/1911 18010KT BECMG 1918/1920 VRB03KT